createdAt,value
2023-03-21T00:01:33.025Z,81.20
2023-03-21T00:04:01.587Z,78.00
2023-03-21T00:06:31.135Z,81.90
2023-03-21T00:08:59.378Z,83.50
2023-03-21T00:11:28.927Z,72.50
2023-03-21T00:13:58.697Z,82.20
2023-03-21T00:16:30.320Z,77.50
2023-03-21T00:19:03.853Z,72.50
2023-03-21T00:21:46.625Z,97.10
2023-03-21T00:24:23.251Z,137.20
2023-03-21T00:26:51.973Z,129.40
2023-03-21T00:29:20.828Z,125.50
2023-03-21T00:31:51.013Z,99.50
2023-03-21T00:34:26.806Z,113.90
2023-03-21T00:37:07.570Z,116.80
2023-03-21T00:39:36.380Z,129.10
2023-03-21T00:42:04.605Z,127.30
2023-03-21T00:44:36.960Z,130.60
2023-03-21T00:47:07.846Z,120.30
2023-03-21T00:49:42.368Z,139.30
2023-03-21T00:52:27.318Z,120.50
2023-03-21T00:54:59.810Z,113.70
2023-03-21T00:57:38.500Z,117.20
2023-03-21T01:00:10.903Z,114.50
2023-03-21T01:03:02.793Z,137.30
2023-03-21T01:05:54.465Z,126.60
2023-03-21T01:08:29.396Z,119.10
2023-03-21T01:11:08.372Z,115.60
2023-03-21T01:13:40.772Z,129.00
2023-03-21T01:16:13.249Z,126.00
2023-03-21T01:18:41.967Z,146.30
2023-03-21T01:21:12.899Z,143.90
2023-03-21T01:26:10.784Z,147.50
2023-03-21T01:28:39.758Z,145.20
2023-03-21T01:31:08.494Z,152.00
2023-03-21T01:33:36.936Z,155.70
2023-03-21T01:36:12.647Z,151.10
2023-03-21T01:38:43.324Z,144.30
2023-03-21T01:41:42.929Z,145.20
2023-03-21T01:44:20.539Z,141.00
2023-03-21T01:47:07.338Z,153.30
2023-03-21T01:49:53.070Z,153.00
2023-03-21T01:52:37.381Z,153.40
2023-03-21T01:55:18.745Z,133.30
2023-03-21T01:58:06.358Z,144.60
2023-03-21T02:00:51.814Z,130.80
2023-03-21T02:03:50.871Z,136.10
2023-03-21T02:07:10.350Z,124.70
2023-03-21T02:09:49.792Z,140.50
2023-03-21T02:20:22.322Z,154.00
2023-03-21T02:23:00.432Z,145.00
2023-03-21T02:26:08.142Z,146.10
2023-03-21T02:28:52.486Z,136.20
2023-03-21T02:32:06.014Z,138.20
2023-03-21T02:35:16.216Z,148.30
2023-03-21T02:37:55.175Z,140.60
2023-03-21T02:40:43.538Z,135.70
2023-03-21T02:43:23.349Z,136.50
2023-03-21T02:46:01.238Z,127.40
2023-03-21T02:48:49.749Z,140.00
2023-03-21T02:51:21.336Z,129.30
2023-03-21T02:54:20.043Z,131.00
2023-03-21T02:56:43.209Z,132.90
2023-03-21T02:59:11.543Z,130.80
2023-03-21T03:01:39.752Z,125.20
2023-03-21T03:04:20.095Z,132.30
2023-03-21T03:07:09.899Z,132.10
2023-03-21T03:10:06.011Z,124.70
2023-03-21T03:12:54.390Z,137.90
2023-03-21T03:15:45.927Z,133.00
2023-03-21T03:18:33.103Z,140.00
2023-03-21T03:21:07.613Z,123.50
2023-03-21T03:23:55.895Z,133.60
2023-03-21T03:26:45.383Z,129.20
2023-03-21T03:29:18.015Z,139.80
2023-03-21T03:32:12.392Z,133.30
2023-03-21T03:34:44.039Z,133.50
2023-03-21T03:37:14.583Z,130.50
2023-03-21T03:39:53.685Z,137.40
2023-03-21T03:42:28.778Z,126.20
2023-03-21T03:45:17.812Z,124.50
2023-03-21T03:48:07.898Z,135.20
2023-03-21T03:51:06.382Z,165.50
2023-03-21T03:54:03.943Z,173.90
2023-03-21T03:56:37.770Z,170.30
2023-03-21T03:59:07.575Z,176.70
2023-03-21T04:02:05.158Z,160.50
2023-03-21T04:04:34.694Z,159.20
2023-03-21T04:07:03.837Z,171.80
2023-03-21T04:09:43.683Z,166.50
2023-03-21T04:12:15.095Z,158.60
2023-03-21T04:14:47.149Z,159.70
2023-03-21T04:17:22.904Z,156.40
2023-03-21T04:19:57.619Z,157.60
2023-03-21T04:22:29.664Z,156.30
2023-03-21T04:25:01.629Z,152.10
2023-03-21T04:27:32.963Z,160.30
2023-03-21T04:30:19.817Z,149.30
2023-03-21T04:32:57.171Z,137.20
2023-03-21T04:35:25.961Z,135.40
2023-03-21T04:37:58.343Z,128.00
2023-03-21T04:40:26.911Z,119.10
2023-03-21T04:42:57.034Z,123.80
2023-03-21T04:45:25.446Z,135.20
2023-03-21T04:47:53.543Z,117.70
2023-03-21T04:50:25.342Z,116.40
2023-03-21T04:52:54.280Z,117.30
2023-03-21T04:55:23.170Z,124.40
2023-03-21T04:57:51.479Z,122.50
2023-03-21T05:00:21.040Z,119.30
2023-03-21T05:02:50.618Z,115.70
2023-03-21T05:05:18.895Z,126.60
2023-03-21T05:07:47.072Z,134.70
2023-03-21T05:10:20.667Z,118.10
2023-03-21T05:12:48.838Z,124.70
2023-03-21T05:22:52.823Z,123.50
2023-03-21T05:25:35.576Z,112.40
2023-03-21T05:28:11.936Z,109.20
2023-03-21T05:30:43.592Z,99.30
2023-03-21T05:33:13.324Z,113.10
2023-03-21T05:43:17.353Z,90.00
2023-03-21T05:45:48.730Z,84.50
2023-03-21T05:48:18.106Z,75.60
2023-03-21T05:50:59.882Z,75.50
2023-03-21T05:53:28.076Z,80.10
2023-03-21T05:55:56.746Z,88.70
2023-03-21T05:58:41.110Z,71.30
2023-03-21T06:01:10.590Z,73.00
2023-03-21T06:03:39.899Z,53.90
2023-03-21T06:06:14.465Z,53.00
2023-03-21T06:16:25.608Z,42.50
2023-03-21T06:18:57.228Z,44.60
2023-03-21T06:21:51.494Z,124.50
2023-03-21T06:24:20.097Z,65.30
2023-03-21T06:26:49.074Z,53.00
2023-03-21T06:29:20.835Z,39.40
2023-03-21T06:31:50.360Z,43.80
2023-03-21T06:34:18.815Z,45.50
2023-03-21T06:36:49.634Z,41.30
2023-03-21T06:39:20.592Z,42.90
2023-03-21T06:41:49.480Z,42.20
2023-03-21T06:44:19.711Z,40.00
2023-03-21T06:46:55.083Z,48.80
2023-03-21T06:49:23.954Z,37.70
2023-03-21T06:51:52.550Z,45.40
2023-03-21T06:54:22.491Z,43.50
2023-03-21T06:56:57.099Z,41.90
2023-03-21T06:59:30.360Z,49.20
2023-03-21T07:02:11.734Z,39.10
2023-03-21T07:05:00.917Z,37.30
2023-03-21T07:07:30.950Z,45.20
2023-03-21T07:10:11.460Z,39.90
2023-03-21T07:12:55.793Z,41.50
2023-03-21T07:15:45.656Z,42.00
2023-03-21T07:18:14.144Z,37.50
2023-03-21T07:20:48.183Z,33.20
2023-03-21T07:23:18.913Z,46.20
2023-03-21T07:25:50.311Z,36.10
2023-03-21T07:28:19.610Z,38.10
2023-03-21T07:30:56.408Z,40.10
2023-03-21T07:33:25.377Z,41.00
2023-03-21T07:35:55.264Z,40.30
2023-03-21T07:38:28.333Z,45.20
2023-03-21T07:40:58.505Z,37.30
2023-03-21T07:43:26.682Z,37.90
2023-03-21T07:46:00.055Z,37.50
2023-03-21T07:48:29.178Z,52.00
2023-03-21T07:50:57.668Z,39.50
2023-03-21T07:53:26.221Z,44.10
2023-03-21T08:03:30.058Z,52.90
2023-03-21T08:06:04.018Z,48.70
2023-03-21T08:08:33.595Z,45.20
2023-03-21T08:11:03.690Z,52.30
2023-03-21T08:13:33.777Z,58.80
2023-03-21T08:16:02.131Z,60.90
2023-03-21T08:18:30.588Z,64.70
2023-03-21T08:20:59.435Z,67.80
2023-03-21T08:23:27.515Z,72.80
2023-03-21T08:25:56.687Z,62.60
2023-03-21T08:28:24.999Z,63.80
2023-03-21T08:30:53.346Z,72.90
2023-03-21T08:33:21.834Z,76.70
2023-03-21T08:35:51.849Z,61.70
2023-03-21T08:38:20.775Z,60.70
2023-03-21T08:40:48.788Z,56.30
2023-03-21T08:43:17.504Z,54.10
2023-03-21T08:45:45.964Z,63.00
2023-03-21T08:48:19.565Z,61.50
2023-03-21T08:50:47.915Z,63.60
2023-03-21T08:53:16.236Z,58.20
2023-03-21T08:55:44.828Z,63.50
2023-03-21T08:58:17.995Z,51.30
2023-03-21T09:00:46.985Z,59.60
2023-03-21T09:03:16.414Z,60.10
2023-03-21T09:05:45.709Z,58.40
2023-03-21T09:08:14.434Z,80.20
2023-03-21T09:10:42.664Z,76.20
2023-03-21T09:13:11.045Z,79.60
2023-03-21T10:00:21.642Z,48.70
2023-03-21T10:02:57.383Z,56.20
2023-03-21T10:05:27.860Z,56.90
2023-03-21T10:08:07.208Z,62.20
2023-03-21T10:10:43.568Z,50.20
2023-03-21T10:13:36.343Z,53.50
2023-03-21T10:16:16.067Z,51.60
2023-03-21T10:18:44.559Z,60.30
2023-03-21T10:21:51.504Z,59.70
2023-03-21T10:24:14.304Z,56.20
2023-03-21T10:26:42.787Z,49.00
2023-03-21T10:29:14.461Z,56.60
2023-03-21T10:31:42.653Z,58.60
2023-03-21T10:34:18.420Z,64.00
2023-03-21T10:36:47.052Z,83.80
2023-03-21T10:39:18.869Z,61.70
2023-03-21T10:41:47.046Z,60.90
2023-03-21T10:44:17.518Z,53.90
2023-03-21T10:46:53.833Z,56.00
2023-03-21T10:49:22.072Z,52.90
2023-03-21T10:51:51.912Z,56.20
2023-03-21T10:54:21.403Z,57.10
2023-03-21T10:57:09.113Z,54.70
2023-03-21T11:00:21.665Z,64.10
2023-03-21T11:03:22.074Z,71.00
2023-03-21T11:05:57.396Z,61.70
2023-03-21T11:08:27.437Z,67.30
2023-03-21T11:11:12.546Z,71.90
2023-03-21T11:13:44.465Z,82.70
2023-03-21T11:16:19.517Z,79.90
2023-03-21T11:18:52.370Z,81.30
2023-03-21T11:21:24.286Z,80.20
2023-03-21T11:23:53.988Z,85.60
2023-03-21T11:26:32.779Z,78.40
2023-03-21T11:29:01.553Z,63.80
2023-03-21T11:31:39.869Z,69.90
2023-03-21T11:34:12.420Z,65.50
2023-03-21T11:37:41.649Z,59.60
2023-03-21T11:40:20.027Z,58.70
2023-03-21T11:42:53.163Z,59.10
2023-03-21T11:45:24.501Z,51.80
2023-03-21T11:47:58.184Z,50.50
2023-03-21T11:50:35.434Z,42.40
2023-03-21T11:53:13.650Z,45.90
2023-03-21T11:56:02.645Z,43.00
2023-03-21T11:58:52.574Z,47.30
2023-03-21T12:01:24.114Z,43.10
2023-03-21T12:04:15.181Z,42.70
2023-03-21T12:06:55.568Z,51.30
2023-03-21T12:12:02.423Z,43.50
2023-03-21T12:14:48.485Z,48.70
2023-03-21T12:17:40.714Z,44.10
2023-03-21T12:20:31.083Z,47.90
2023-03-21T12:23:04.238Z,43.30
2023-03-21T12:25:44.980Z,44.50
2023-03-21T12:29:00.242Z,49.00
2023-03-21T12:31:36.295Z,45.30
2023-03-21T12:34:18.110Z,41.40
2023-03-21T12:37:25.038Z,41.50
2023-03-21T12:39:57.671Z,37.40
2023-03-21T12:42:40.269Z,42.50
2023-03-21T12:45:46.947Z,41.10
2023-03-21T12:48:42.594Z,45.00
2023-03-21T12:51:20.159Z,42.60
2023-03-21T12:54:21.513Z,47.40
2023-03-21T12:57:03.121Z,73.60
2023-03-21T13:00:12.182Z,61.10
2023-03-21T13:03:01.023Z,45.00
2023-03-21T13:05:32.621Z,41.20
2023-03-21T13:10:49.597Z,48.30
2023-03-21T13:13:27.385Z,47.30
2023-03-21T13:16:07.772Z,43.30
2023-03-21T13:18:39.434Z,43.70
2023-03-21T13:21:22.326Z,46.60
2023-03-21T13:24:05.713Z,53.50
2023-03-21T13:26:40.069Z,43.60
2023-03-21T13:29:22.915Z,46.80
2023-03-21T13:31:53.855Z,47.40
2023-03-21T13:34:24.373Z,41.90
2023-03-21T13:36:54.338Z,44.90
2023-03-21T13:39:28.148Z,39.90
2023-03-21T13:41:56.645Z,42.50
2023-03-21T13:44:42.146Z,44.40
2023-03-21T13:47:38.397Z,46.90
2023-03-21T13:50:31.043Z,43.70
2023-03-21T13:53:15.685Z,46.90
2023-03-21T13:55:46.923Z,45.60
2023-03-21T13:58:50.544Z,45.70
2023-03-21T14:01:42.639Z,60.60
2023-03-21T14:04:24.145Z,44.80
2023-03-21T14:07:07.321Z,48.40
2023-03-21T14:09:48.581Z,64.60
2023-03-21T14:12:25.240Z,60.00
2023-03-21T14:15:20.181Z,62.90
2023-03-21T14:17:57.549Z,53.30
2023-03-21T14:20:29.605Z,60.60
2023-03-21T14:22:57.863Z,59.60
2023-03-21T14:25:37.226Z,54.20
2023-03-21T14:28:21.849Z,43.80
2023-03-21T14:30:55.933Z,46.20
2023-03-21T14:33:28.666Z,48.30
2023-03-21T14:36:02.077Z,45.80
2023-03-21T14:38:35.732Z,48.50
2023-03-21T14:41:04.773Z,44.70
2023-03-21T14:43:37.756Z,40.90
2023-03-21T14:46:06.890Z,41.30
2023-03-21T14:48:35.843Z,45.30
2023-03-21T14:51:10.487Z,42.20
2023-03-21T14:53:41.649Z,41.10
2023-03-21T14:56:17.262Z,38.60
2023-03-21T14:58:53.749Z,41.10
2023-03-21T15:01:32.713Z,41.90
2023-03-21T15:04:01.866Z,39.80
2023-03-21T15:06:30.753Z,40.20
2023-03-21T15:09:04.355Z,38.40
2023-03-21T15:11:37.747Z,43.90
2023-03-21T15:14:10.430Z,41.50
2023-03-21T15:16:40.102Z,46.40
2023-03-21T15:19:09.858Z,47.90
2023-03-21T15:21:39.778Z,43.90
2023-03-21T15:24:15.919Z,49.70
2023-03-21T15:26:50.562Z,48.60
2023-03-21T15:29:18.975Z,46.50
2023-03-21T15:31:48.717Z,43.40
2023-03-21T15:34:20.209Z,49.30
2023-03-21T15:39:20.130Z,53.20
2023-03-21T15:42:02.910Z,52.50
2023-03-21T15:44:31.427Z,56.40
2023-03-21T15:47:00.310Z,54.60
2023-03-21T15:49:33.061Z,64.10
2023-03-21T15:52:11.689Z,59.40
2023-03-21T15:54:57.120Z,59.40
2023-03-21T15:57:33.191Z,56.00
2023-03-21T16:00:26.091Z,57.10
2023-03-21T16:02:59.560Z,58.70
2023-03-21T16:05:30.824Z,70.20
2023-03-21T16:08:04.695Z,80.90
2023-03-21T16:10:38.515Z,72.00
2023-03-21T16:13:07.452Z,80.80
2023-03-21T16:15:35.683Z,76.30
2023-03-21T16:18:06.618Z,83.90
2023-03-21T16:20:41.931Z,101.50
2023-03-21T16:23:14.923Z,102.40
2023-03-21T16:25:44.665Z,106.30
2023-03-21T16:28:16.449Z,89.10
2023-03-21T16:30:44.985Z,88.50
2023-03-21T16:33:14.783Z,88.30
2023-03-21T16:35:44.438Z,94.90
2023-03-21T16:38:13.805Z,113.40
2023-03-21T16:40:44.032Z,117.80
2023-03-21T16:43:12.747Z,140.80
2023-03-21T16:45:44.413Z,122.80
2023-03-21T16:48:18.437Z,98.70
2023-03-21T16:50:48.334Z,95.30
2023-03-21T16:53:17.260Z,94.70
2023-03-21T16:55:46.345Z,88.70
2023-03-21T16:58:22.032Z,112.80
2023-03-21T17:00:51.117Z,216.60
2023-03-21T17:03:19.511Z,211.30
2023-03-21T17:05:50.041Z,226.30
2023-03-21T17:08:20.463Z,145.10
2023-03-21T17:10:48.999Z,125.10
2023-03-21T17:13:19.462Z,107.90
2023-03-21T17:15:48.737Z,118.30
2023-03-21T17:18:18.940Z,125.50
2023-03-21T17:20:49.475Z,155.60
2023-03-21T17:23:18.806Z,185.40
2023-03-21T17:25:52.357Z,198.90
2023-03-21T17:28:22.130Z,201.00
2023-03-21T17:30:52.155Z,153.70
2023-03-21T17:33:22.378Z,149.30
2023-03-21T17:35:51.013Z,152.80
2023-03-21T17:38:20.157Z,151.90
2023-03-21T17:40:50.102Z,161.60
2023-03-21T17:43:24.344Z,181.00
2023-03-21T17:45:52.840Z,160.50
2023-03-21T17:48:22.701Z,152.90
2023-03-21T17:50:51.433Z,152.70
2023-03-21T17:53:20.162Z,167.20
2023-03-21T17:55:56.464Z,143.90
2023-03-21T17:58:28.730Z,129.70
2023-03-21T18:00:57.900Z,146.60
2023-03-21T18:03:26.566Z,165.90
2023-03-21T18:05:54.747Z,168.50
2023-03-21T18:08:29.665Z,197.20
2023-03-21T18:10:59.807Z,208.90
2023-03-21T18:13:28.423Z,199.90
2023-03-21T18:15:56.752Z,194.30
2023-03-21T18:18:27.419Z,184.50
2023-03-21T18:20:58.362Z,174.70
2023-03-21T18:23:27.338Z,171.10
2023-03-21T18:25:56.505Z,172.20
2023-03-21T18:28:25.410Z,168.90
2023-03-21T18:31:18.003Z,172.60
2023-03-21T18:33:46.895Z,171.10
2023-03-21T18:36:25.022Z,187.40
2023-03-21T18:38:56.971Z,198.60
2023-03-21T18:41:26.112Z,195.70
2023-03-21T18:44:13.989Z,203.10
2023-03-21T18:46:47.577Z,188.60
2023-03-21T18:52:07.082Z,155.00
2023-03-21T18:54:36.733Z,146.30
2023-03-21T18:57:34.647Z,152.10
2023-03-21T18:59:55.056Z,154.80
2023-03-21T19:02:23.473Z,157.20
2023-03-21T19:04:52.364Z,176.50
2023-03-21T19:07:20.999Z,176.90
2023-03-21T19:10:15.419Z,153.30
2023-03-21T19:12:43.250Z,159.20
2023-03-21T19:15:11.961Z,164.70
2023-03-21T19:20:32.655Z,189.10
2023-03-21T19:23:01.834Z,178.90
2023-03-21T19:25:30.469Z,207.20
2023-03-21T19:27:59.353Z,228.80
2023-03-21T19:30:32.122Z,217.00
2023-03-21T19:33:02.102Z,199.40
2023-03-21T19:35:31.321Z,198.10
2023-03-21T19:38:00.652Z,206.30
2023-03-21T19:40:29.830Z,179.50
2023-03-21T19:42:58.196Z,154.30
2023-03-21T19:45:29.484Z,148.60
2023-03-21T19:47:57.882Z,156.00
2023-03-21T19:51:13.400Z,156.80
2023-03-21T19:53:19.782Z,142.60
2023-03-21T19:55:54.145Z,160.80
2023-03-21T19:58:24.923Z,171.30
2023-03-21T20:00:53.162Z,166.60
2023-03-21T20:03:22.414Z,165.40
2023-03-21T20:05:50.904Z,177.40
2023-03-21T20:08:20.631Z,154.70
2023-03-21T20:13:18.954Z,149.80
2023-03-21T20:15:48.281Z,167.90
2023-03-21T20:18:20.670Z,181.60
2023-03-21T20:20:48.948Z,177.10
2023-03-21T20:23:17.336Z,185.10
2023-03-21T20:25:47.248Z,187.90
2023-03-21T20:28:24.339Z,176.40
2023-03-21T20:30:58.809Z,182.30
2023-03-21T20:33:28.148Z,224.70
2023-03-21T20:38:51.995Z,225.00
2023-03-21T20:41:20.720Z,419.70
2023-03-21T20:46:38.621Z,281.10
2023-03-21T20:49:09.463Z,268.20
2023-03-21T20:54:27.624Z,211.40
2023-03-21T20:56:56.862Z,192.10
2023-03-21T20:59:28.143Z,192.20
2023-03-21T21:03:41.483Z,169.00
2023-03-21T21:06:15.955Z,180.20
2023-03-21T21:08:45.961Z,180.70
2023-03-21T21:12:04.754Z,164.50
2023-03-21T21:14:07.256Z,162.30
2023-03-21T21:16:37.480Z,153.60
2023-03-21T21:19:07.392Z,145.40
2023-03-21T21:21:36.316Z,159.60
2023-03-21T21:24:07.648Z,144.40
2023-03-21T21:26:41.301Z,154.60
2023-03-21T21:29:17.229Z,182.60
2023-03-21T21:31:49.352Z,193.90
2023-03-21T21:34:20.400Z,175.40
2023-03-21T21:36:50.145Z,233.50
2023-03-21T21:39:18.547Z,315.00
2023-03-21T21:41:46.997Z,269.50
2023-03-21T21:44:16.596Z,222.90
2023-03-21T21:46:45.265Z,250.30
2023-03-21T21:49:14.580Z,258.70
2023-03-21T21:54:26.388Z,289.70
2023-03-21T21:56:54.600Z,258.80
2023-03-21T21:59:24.522Z,197.70
2023-03-21T22:01:58.925Z,256.50
2023-03-21T22:04:28.052Z,243.10
2023-03-21T22:06:56.688Z,198.70
2023-03-21T22:09:25.785Z,177.30
2023-03-21T22:11:57.634Z,149.10
2023-03-21T22:14:30.772Z,146.80
2023-03-21T22:17:06.080Z,150.90
2023-03-21T22:19:34.451Z,155.80
2023-03-21T22:22:09.508Z,133.80
2023-03-21T22:24:39.297Z,190.20
2023-03-21T22:27:07.962Z,147.90
2023-03-21T22:29:36.256Z,155.30
2023-03-21T22:32:05.356Z,146.90
2023-03-21T22:34:33.753Z,143.10
2023-03-21T22:37:02.748Z,154.30
2023-03-21T22:39:31.527Z,142.40
2023-03-21T22:42:04.861Z,163.30
2023-03-21T22:44:37.496Z,149.60
2023-03-21T22:47:08.089Z,153.10
2023-03-21T22:49:38.320Z,142.60
2023-03-21T22:52:07.199Z,139.80
2023-03-21T22:54:43.398Z,137.70
2023-03-21T22:57:13.797Z,132.90
2023-03-21T22:59:43.293Z,137.30
2023-03-21T23:02:12.295Z,137.10
2023-03-21T23:04:41.968Z,128.60
2023-03-21T23:07:10.809Z,118.00
2023-03-21T23:09:39.207Z,118.20
2023-03-21T23:12:07.789Z,122.90
2023-03-21T23:14:37.413Z,117.30
2023-03-21T23:17:10.594Z,109.70
2023-03-21T23:19:41.163Z,114.30
2023-03-21T23:22:11.903Z,116.30
2023-03-21T23:24:41.662Z,139.60
2023-03-21T23:27:09.756Z,165.60
2023-03-21T23:29:39.144Z,151.10
2023-03-21T23:32:07.920Z,131.30
2023-03-21T23:34:37.130Z,122.60
2023-03-21T23:37:07.265Z,114.90
2023-03-21T23:39:35.639Z,117.70
2023-03-21T23:42:04.738Z,110.30
2023-03-21T23:44:33.520Z,111.80
2023-03-21T23:47:05.601Z,111.80
2023-03-21T23:49:38.156Z,112.20
2023-03-21T23:52:06.714Z,115.40
2023-03-21T23:54:35.130Z,108.60
2023-03-21T23:57:04.531Z,107.70
2023-03-21T23:59:40.890Z,104.90
